This is the latest recevied weather packets stored in our database for station/object F4MLU-13. If no packets are shown the sender has not sent any weather packets the latest 10 day(s).
| Time | Temp. | Humidity | Pressure | Rain* | Wind** | Luminosity | Snow |
|---|---|---|---|---|---|---|---|
| 1777828831 | 17.78° C | 86% | - | 0 mm | - | - | - |
| 1777828261 | 18.33° C | 86% | - | 0 mm | - | - | - |
| 1777825831 | 18.89° C | 85% | - | 0 mm | - | - | - |
| 1777824031 | 18.89° C | 83% | - | 0 mm | - | - | - |
| 1777821631 | 20° C | 77% | - | 0 mm | - | - | - |
| 1777816832 | 21.67° C | 69% | - | 0 mm | - | - | - |
| 1777813832 | 20.56° C | 77% | - | 0 mm | - | - | - |
| 1777812032 | 20° C | 76% | - | 0 mm | - | - | - |
| 1777807232 | 20.56° C | 75% | - | 0 mm | - | - | - |
| 1777804232 | 20° C | 75% | - | 0 mm | - | - | - |
| 1777803632 | 20.56° C | 72% | - | 0 mm | - | - | - |
| 1777801232 | 21.67° C | 71% | - | 0 mm | - | - | - |
| 1777799432 | 22.22° C | 72% | - | 0 mm | - | - | - |
| 1777798232 | 20.56° C | 75% | - | 0 mm | - | - | - |
| 1777797652 | 21.11° C | 74% | - | 0 mm | - | - | - |
| 1777795832 | 20° C | 77% | - | 0 mm | - | - | - |
| 1777795232 | 19.44° C | 79% | - | 0 mm | - | - | - |
| 1777792833 | 15° C | 95% | - | 0 mm | - | - | - |
| 1777791032 | 14.44° C | 97% | - | 0 mm | - | - | - |
| 1777789253 | 13.33° C | 99% | - | 0 mm | - | - | - |
| 1777784433 | 11.67° C | 99% | - | 0 mm | - | - | - |
| 1777783233 | 11.67° C | 99% | - | 0 mm | - | - | - |
| 1777778433 | 12.78° C | 99% | - | 0 mm | - | - | - |
| 1777776633 | 12.78° C | 99% | - | 0 mm | - | - | - |
| 1777774233 | 12.78° C | 99% | - | 0 mm | - | - | - |
* Rain latest hour (hover to see other rain measurements)
** Current wind speed in m/s (hover to see current wind gust speed)